createdAt,value
2023-04-07T00:01:26.873Z,9.70
2023-04-07T00:04:07.289Z,8.77
2023-04-07T00:06:38.927Z,8.97
2023-04-07T00:09:07.833Z,8.87
2023-04-07T00:11:36.215Z,9.00
2023-04-07T00:14:04.514Z,9.10
2023-04-07T00:16:35.905Z,7.73
2023-04-07T00:19:04.280Z,6.70
2023-04-07T00:21:33.063Z,6.97
2023-04-07T00:24:08.691Z,6.20
2023-04-07T00:26:37.040Z,6.83
2023-04-07T00:29:05.770Z,6.80
2023-04-07T00:31:35.755Z,7.23
2023-04-07T00:37:03.724Z,6.43
2023-04-07T00:39:33.151Z,5.63
2023-04-07T00:42:01.464Z,4.60
2023-04-07T00:44:30.013Z,5.80
2023-04-07T00:46:58.149Z,5.90
2023-04-07T00:49:30.718Z,6.47
2023-04-07T00:51:59.472Z,9.20
2023-04-07T00:54:29.889Z,8.97
2023-04-07T00:56:58.661Z,9.27
2023-04-07T00:59:29.460Z,9.90
2023-04-07T01:02:09.834Z,8.80
2023-04-07T01:04:54.228Z,9.50
2023-04-07T01:07:22.714Z,9.03
2023-04-07T01:10:06.964Z,9.33
2023-04-07T01:12:45.190Z,9.30
2023-04-07T01:15:14.341Z,8.17
2023-04-07T01:17:53.080Z,8.37
2023-04-07T01:20:24.108Z,8.80
2023-04-07T01:22:55.836Z,8.10
2023-04-07T01:26:08.880Z,7.70
2023-04-07T01:28:58.417Z,7.43
2023-04-07T01:31:27.387Z,7.00
2023-04-07T01:33:59.844Z,6.03
2023-04-07T01:36:29.013Z,5.90
2023-04-07T01:38:58.397Z,6.37
2023-04-07T01:41:26.912Z,6.00
2023-04-07T01:43:56.312Z,6.17
2023-04-07T01:46:24.783Z,7.53
2023-04-07T01:48:53.355Z,6.27
2023-04-07T01:51:25.107Z,6.50
2023-04-07T01:53:54.104Z,6.73
2023-04-07T01:56:22.808Z,6.37
2023-04-07T01:58:51.391Z,5.80
2023-04-07T02:01:22.043Z,6.37
2023-04-07T02:04:01.373Z,6.10
2023-04-07T02:06:35.560Z,5.80
2023-04-07T02:09:07.303Z,6.30
2023-04-07T02:11:38.412Z,6.90
2023-04-07T02:14:07.737Z,6.20
2023-04-07T02:16:36.680Z,6.50
2023-04-07T02:19:05.352Z,6.07
2023-04-07T02:21:35.188Z,6.80
2023-04-07T02:24:06.998Z,6.87
2023-04-07T02:26:36.603Z,7.20
2023-04-07T02:29:05.415Z,6.50
2023-04-07T02:31:36.580Z,6.40
2023-04-07T02:34:05.617Z,6.50
2023-04-07T02:36:34.275Z,6.90
2023-04-07T02:39:03.869Z,6.43
2023-04-07T02:42:19.504Z,8.70
2023-04-07T02:44:47.557Z,6.73
2023-04-07T02:47:18.035Z,6.70
2023-04-07T02:49:46.785Z,6.17
2023-04-07T02:52:14.818Z,6.17
2023-04-07T02:54:43.630Z,6.93
2023-04-07T02:57:14.780Z,6.60
2023-04-07T02:59:42.842Z,7.00
2023-04-07T03:02:12.460Z,6.53
2023-04-07T03:04:40.946Z,7.20
2023-04-07T03:07:09.220Z,7.97
2023-04-07T03:09:38.007Z,7.00
2023-04-07T03:12:06.284Z,7.10
2023-04-07T03:14:34.855Z,7.53
2023-04-07T03:17:06.931Z,7.23
2023-04-07T03:19:36.426Z,8.00
2023-04-07T03:22:04.997Z,7.80
2023-04-07T03:24:35.109Z,6.83
2023-04-07T03:27:05.804Z,8.30
2023-04-07T03:29:54.849Z,8.00
2023-04-07T03:32:23.494Z,8.00
2023-04-07T03:34:51.528Z,8.17
2023-04-07T03:37:19.627Z,7.87
2023-04-07T03:39:47.901Z,8.97
2023-04-07T03:42:17.468Z,8.53
2023-04-07T03:44:48.526Z,7.70
2023-04-07T03:47:16.478Z,8.30
2023-04-07T03:49:45.159Z,8.80
2023-04-07T03:52:13.263Z,8.13
2023-04-07T03:54:42.644Z,8.20
2023-04-07T03:57:10.856Z,8.50
2023-04-07T03:59:42.009Z,7.83
2023-04-07T04:02:51.273Z,8.57
2023-04-07T04:19:48.905Z,10.13
2023-04-07T04:22:19.819Z,9.23
2023-04-07T04:24:47.792Z,9.10
2023-04-07T04:27:16.837Z,9.23
2023-04-07T04:29:45.252Z,9.10
2023-04-07T04:32:15.404Z,8.70
2023-04-07T04:34:45.167Z,9.83
2023-04-07T04:37:13.722Z,9.43
2023-04-07T04:39:42.148Z,9.67
2023-04-07T04:42:10.699Z,8.80
2023-04-07T04:44:38.993Z,9.07
2023-04-07T04:47:15.167Z,9.47
2023-04-07T04:49:43.858Z,9.63
2023-04-07T04:52:12.387Z,9.07
2023-04-07T04:54:41.271Z,9.73
2023-04-07T04:57:09.516Z,8.60
2023-04-07T04:59:51.254Z,9.30
2023-04-07T05:02:22.516Z,9.87
2023-04-07T05:04:51.677Z,9.83
2023-04-07T05:07:25.204Z,10.47
2023-04-07T05:09:57.890Z,10.53
2023-04-07T05:12:26.969Z,10.67
2023-04-07T05:15:01.163Z,9.73
2023-04-07T05:17:29.808Z,10.23
2023-04-07T05:20:02.130Z,9.80
2023-04-07T05:22:31.847Z,9.83
2023-04-07T05:24:59.915Z,10.27
2023-04-07T05:27:30.807Z,10.37
2023-04-07T05:30:03.584Z,9.73
2023-04-07T05:32:32.837Z,9.63
2023-04-07T05:35:00.907Z,9.97
2023-04-07T05:37:32.938Z,9.57
2023-04-07T05:40:01.243Z,9.10
2023-04-07T05:42:29.490Z,8.70
2023-04-07T05:45:00.435Z,8.37
2023-04-07T05:47:28.699Z,8.93
2023-04-07T05:49:56.644Z,8.00
2023-04-07T05:52:25.014Z,8.13
2023-04-07T05:54:53.616Z,8.50
2023-04-07T05:57:23.177Z,7.87
2023-04-07T05:59:53.540Z,8.50
2023-04-07T06:02:24.658Z,8.50
2023-04-07T06:04:52.848Z,7.67
2023-04-07T06:07:21.175Z,8.27
2023-04-07T06:09:49.882Z,7.50
2023-04-07T06:12:19.446Z,7.23
2023-04-07T06:14:53.404Z,8.20
2023-04-07T06:17:24.150Z,7.77
2023-04-07T06:19:52.801Z,7.87
2023-04-07T06:22:21.005Z,7.70
2023-04-07T06:24:53.590Z,7.47
2023-04-07T06:27:22.762Z,8.33
2023-04-07T06:29:51.890Z,8.87
2023-04-07T06:32:22.734Z,8.00
2023-04-07T06:34:50.999Z,8.17
2023-04-07T06:37:19.053Z,8.30
2023-04-07T06:39:47.085Z,8.20
2023-04-07T06:42:15.817Z,8.87
2023-04-07T06:44:44.084Z,8.03
2023-04-07T06:47:14.939Z,8.80
2023-04-07T06:49:45.035Z,8.73
2023-04-07T06:52:13.116Z,9.00
2023-04-07T06:54:40.899Z,9.27
2023-04-07T06:57:14.804Z,9.10
2023-04-07T06:59:42.626Z,9.20
2023-04-07T07:02:12.373Z,10.13
2023-04-07T07:04:40.855Z,9.20
2023-04-07T07:07:08.802Z,9.83
2023-04-07T07:09:36.847Z,9.70
2023-04-07T07:12:06.796Z,9.83
2023-04-07T07:14:35.162Z,10.40
2023-04-07T07:17:03.137Z,10.80
2023-04-07T07:19:31.476Z,12.03
2023-04-07T07:22:07.614Z,11.67
2023-04-07T07:24:41.368Z,10.23
2023-04-07T07:27:11.571Z,10.47
2023-04-07T07:29:39.544Z,10.57
2023-04-07T07:32:08.574Z,10.80
2023-04-07T07:34:36.659Z,10.43
2023-04-07T07:37:05.742Z,11.13
2023-04-07T07:39:34.374Z,10.97
2023-04-07T07:42:02.472Z,11.57
2023-04-07T07:44:32.462Z,12.53
2023-04-07T07:47:00.772Z,11.93
2023-04-07T07:49:31.004Z,14.43
2023-04-07T07:52:00.208Z,10.77
2023-04-07T07:54:31.722Z,11.30
2023-04-07T07:56:59.650Z,11.37
2023-04-07T07:59:27.885Z,10.77
2023-04-07T08:01:58.316Z,10.70
2023-04-07T08:04:27.448Z,10.57
2023-04-07T08:06:56.416Z,10.90
2023-04-07T08:09:44.975Z,11.40
2023-04-07T08:12:13.011Z,11.10
2023-04-07T08:14:41.316Z,10.90
2023-04-07T08:17:09.310Z,10.77
2023-04-07T08:19:38.804Z,11.03
2023-04-07T08:22:06.831Z,10.30
2023-04-07T08:24:35.385Z,10.77
2023-04-07T08:27:03.489Z,11.60
2023-04-07T08:29:35.047Z,10.60
2023-04-07T08:32:03.249Z,10.50
2023-04-07T08:34:31.742Z,10.57
2023-04-07T08:37:00.543Z,11.70
2023-04-07T08:39:30.702Z,10.27
2023-04-07T08:41:59.326Z,10.90
2023-04-07T08:44:28.871Z,12.17
2023-04-07T08:46:58.179Z,11.20
2023-04-07T08:49:30.002Z,10.93
2023-04-07T08:52:04.063Z,11.83
2023-04-07T08:54:34.373Z,11.27
2023-04-07T08:57:16.957Z,11.67
2023-04-07T08:59:49.710Z,12.33
2023-04-07T09:02:20.191Z,10.27
2023-04-07T09:04:48.784Z,11.80
2023-04-07T09:07:17.017Z,11.73
2023-04-07T09:09:46.187Z,12.23
2023-04-07T09:12:14.652Z,10.63
2023-04-07T09:14:43.185Z,11.23
2023-04-07T09:17:15.906Z,11.77
2023-04-07T09:19:45.042Z,11.93
2023-04-07T09:22:14.927Z,11.33
2023-04-07T09:24:44.060Z,11.53
2023-04-07T09:27:17.208Z,11.63
2023-04-07T09:29:47.882Z,12.43
2023-04-07T09:32:36.956Z,14.07
2023-04-07T09:35:05.253Z,14.43
2023-04-07T09:37:34.156Z,12.93
2023-04-07T09:40:02.471Z,13.53
2023-04-07T09:42:34.790Z,13.40
2023-04-07T09:45:03.387Z,14.10
2023-04-07T09:47:34.949Z,13.17
2023-04-07T09:50:07.180Z,12.57
2023-04-07T09:52:54.350Z,12.30
2023-04-07T09:55:24.977Z,12.07
2023-04-07T09:57:55.844Z,12.57
2023-04-07T10:00:26.912Z,12.87
2023-04-07T10:02:55.969Z,12.63
2023-04-07T10:05:25.471Z,12.80
2023-04-07T10:07:54.900Z,12.80
2023-04-07T10:10:23.182Z,12.17
2023-04-07T10:12:52.697Z,13.00
2023-04-07T10:15:21.262Z,11.97
2023-04-07T10:17:54.968Z,13.07
2023-04-07T10:20:24.371Z,13.10
2023-04-07T10:22:54.110Z,13.50
2023-04-07T10:25:23.706Z,13.70
2023-04-07T10:28:07.542Z,14.00
2023-04-07T10:30:38.883Z,13.10
2023-04-07T10:33:48.117Z,12.93
2023-04-07T10:36:18.674Z,13.80
2023-04-07T10:39:14.435Z,13.43
2023-04-07T10:41:44.434Z,12.83
2023-04-07T10:44:45.791Z,12.97
2023-04-07T10:47:14.557Z,12.63
2023-04-07T10:50:18.466Z,13.43
2023-04-07T10:52:49.312Z,12.67
2023-04-07T10:55:40.717Z,12.13
2023-04-07T10:58:15.665Z,12.27
2023-04-07T11:01:06.996Z,11.87
2023-04-07T11:04:07.587Z,11.67
2023-04-07T11:06:42.624Z,11.60
2023-04-07T11:09:19.898Z,12.40
2023-04-07T11:11:53.897Z,12.30
2023-04-07T11:14:32.167Z,12.20
2023-04-07T11:17:04.092Z,13.33
2023-04-07T11:19:52.404Z,12.73
2023-04-07T11:24:56.302Z,12.63
2023-04-07T11:27:28.853Z,12.87
2023-04-07T11:30:00.130Z,12.80
2023-04-07T11:32:30.329Z,13.90
2023-04-07T11:34:58.592Z,11.93
2023-04-07T11:37:29.227Z,12.03
2023-04-07T11:40:02.661Z,12.63
2023-04-07T11:42:59.358Z,11.87
2023-04-07T11:45:27.414Z,12.00
2023-04-07T11:47:56.372Z,12.37
2023-04-07T11:50:45.339Z,12.93
2023-04-07T11:53:16.928Z,11.37
2023-04-07T11:55:45.444Z,12.10
2023-04-07T11:58:19.239Z,11.60
2023-04-07T12:00:56.328Z,12.33
2023-04-07T12:03:25.446Z,11.77
2023-04-07T12:05:54.895Z,11.30
2023-04-07T12:08:41.222Z,12.23
2023-04-07T12:11:10.629Z,12.00
2023-04-07T12:13:59.211Z,11.63
2023-04-07T12:16:28.387Z,11.90
2023-04-07T12:18:56.517Z,11.47
2023-04-07T12:21:28.453Z,10.97
2023-04-07T12:23:59.510Z,11.67
2023-04-07T12:26:32.437Z,12.00
2023-04-07T12:29:05.514Z,11.77
2023-04-07T12:31:34.975Z,11.67
2023-04-07T12:34:05.180Z,11.37
2023-04-07T12:36:35.571Z,11.50
2023-04-07T12:39:03.881Z,11.60
2023-04-07T12:41:34.208Z,11.30
2023-04-07T12:44:02.721Z,12.00
2023-04-07T12:46:33.078Z,11.47
2023-04-07T12:49:01.670Z,11.20
2023-04-07T12:51:31.780Z,12.07
2023-04-07T12:54:04.844Z,11.00
2023-04-07T12:56:33.001Z,11.20
2023-04-07T12:59:01.108Z,11.03
2023-04-07T13:01:37.613Z,11.00
2023-04-07T13:04:06.607Z,10.83
2023-04-07T13:06:34.787Z,10.27
2023-04-07T13:09:03.829Z,10.60
2023-04-07T13:11:33.013Z,11.20
2023-04-07T13:14:01.667Z,10.47
2023-04-07T13:16:30.087Z,10.47
2023-04-07T13:18:58.765Z,10.77
2023-04-07T13:21:45.521Z,10.53
2023-04-07T13:24:15.170Z,10.13
2023-04-07T13:26:44.259Z,10.37
2023-04-07T13:29:12.377Z,10.03
2023-04-07T13:31:42.501Z,10.67
2023-04-07T13:34:16.782Z,10.00
2023-04-07T13:36:45.218Z,9.50
2023-04-07T13:39:13.622Z,9.73
2023-04-07T13:41:42.414Z,9.97
2023-04-07T13:44:13.003Z,9.33
2023-04-07T13:46:41.297Z,9.97
2023-04-07T13:49:10.447Z,9.67
2023-04-07T13:51:39.584Z,9.37
2023-04-07T13:54:07.939Z,9.63
2023-04-07T13:56:38.800Z,9.03
2023-04-07T13:59:07.745Z,10.17
2023-04-07T14:01:41.197Z,9.27
2023-04-07T14:04:09.894Z,9.13
2023-04-07T14:06:38.440Z,9.07
2023-04-07T14:09:07.055Z,9.10
2023-04-07T14:11:35.854Z,8.90
2023-04-07T14:14:08.342Z,8.87
2023-04-07T14:16:38.901Z,8.43
2023-04-07T14:19:07.925Z,8.43
2023-04-07T14:21:39.757Z,9.33
2023-04-07T14:24:07.723Z,8.80
2023-04-07T14:26:36.471Z,8.40
2023-04-07T14:29:05.167Z,8.70
2023-04-07T14:31:33.941Z,8.53
2023-04-07T14:34:05.135Z,7.93
2023-04-07T14:36:36.823Z,7.93
2023-04-07T14:39:09.460Z,7.87
2023-04-07T14:41:39.119Z,8.00
2023-04-07T14:44:07.697Z,7.37
2023-04-07T14:46:39.670Z,8.10
2023-04-07T14:49:08.454Z,8.27
2023-04-07T14:51:36.570Z,8.07
2023-04-07T14:54:08.458Z,7.53
2023-04-07T14:56:37.521Z,8.13
2023-04-07T14:59:06.115Z,7.77
2023-04-07T15:01:36.154Z,7.67
2023-04-07T15:04:11.792Z,7.97
2023-04-07T15:06:47.329Z,9.73
2023-04-07T15:09:15.794Z,8.30
2023-04-07T15:11:44.022Z,8.30
2023-04-07T15:14:15.076Z,9.35
2023-04-07T15:16:43.465Z,9.10
2023-04-07T15:19:12.939Z,8.63
2023-04-07T15:21:41.578Z,8.63
2023-04-07T15:24:09.928Z,9.13
2023-04-07T15:26:40.973Z,8.70
2023-04-07T15:29:09.287Z,7.63
2023-04-07T15:31:39.089Z,8.17
2023-04-07T15:34:07.162Z,8.40
2023-04-07T15:36:35.380Z,8.20
2023-04-07T15:39:08.628Z,8.27
2023-04-07T15:41:37.334Z,7.77
2023-04-07T15:44:09.217Z,7.70
2023-04-07T15:46:40.037Z,7.77
2023-04-07T15:49:08.159Z,7.20
2023-04-07T15:51:40.094Z,8.40
2023-04-07T15:54:08.242Z,7.30
2023-04-07T15:56:39.128Z,8.47
2023-04-07T15:59:07.112Z,8.23
2023-04-07T16:01:35.454Z,7.53
2023-04-07T16:04:06.856Z,7.50
2023-04-07T16:06:35.012Z,7.40
2023-04-07T16:09:03.140Z,7.43
2023-04-07T16:11:32.921Z,7.10
2023-04-07T16:14:02.473Z,7.63
2023-04-07T16:16:43.251Z,6.63
2023-04-07T16:19:13.880Z,4.70
2023-04-07T16:21:44.234Z,4.97
2023-04-07T16:24:14.416Z,4.93
2023-04-07T16:26:42.987Z,4.80
2023-04-07T16:29:15.394Z,5.20
2023-04-07T16:31:44.881Z,5.40
2023-04-07T16:34:14.811Z,4.90
2023-04-07T16:36:42.973Z,5.67
2023-04-07T16:39:11.309Z,4.57
2023-04-07T16:41:42.174Z,4.97
2023-04-07T16:44:10.310Z,4.60
2023-04-07T16:46:39.034Z,4.70
2023-04-07T16:49:11.128Z,4.80
2023-04-07T16:51:39.540Z,4.50
2023-04-07T16:54:08.104Z,5.27
2023-04-07T16:56:37.527Z,4.73
2023-04-07T16:59:05.603Z,5.23
2023-04-07T17:01:39.047Z,5.43
2023-04-07T17:04:09.502Z,5.20
2023-04-07T17:06:41.302Z,6.20
2023-04-07T17:09:18.998Z,5.23
2023-04-07T17:11:50.540Z,6.17
2023-04-07T17:14:21.931Z,7.93
2023-04-07T17:16:50.322Z,8.70
2023-04-07T17:19:20.628Z,6.03
2023-04-07T17:21:51.210Z,12.33
2023-04-07T17:24:23.040Z,17.43
2023-04-07T17:26:51.964Z,10.43
2023-04-07T17:29:29.256Z,8.60
2023-04-07T17:31:57.593Z,6.43
2023-04-07T17:34:29.311Z,10.23
2023-04-07T17:37:02.041Z,8.73
2023-04-07T17:39:35.450Z,6.97
2023-04-07T17:42:05.392Z,11.17
2023-04-07T17:45:10.010Z,6.70
2023-04-07T17:47:41.033Z,6.30
2023-04-07T17:50:11.183Z,6.07
2023-04-07T17:52:39.490Z,5.40
2023-04-07T17:55:08.684Z,5.97
2023-04-07T17:57:42.532Z,5.03
2023-04-07T18:00:14.024Z,5.73
2023-04-07T18:03:02.453Z,10.40
2023-04-07T18:05:31.407Z,8.40
2023-04-07T18:08:00.079Z,9.27
2023-04-07T18:10:30.376Z,9.70
2023-04-07T18:12:59.532Z,10.23
2023-04-07T18:15:28.165Z,11.43
2023-04-07T18:17:56.455Z,11.17
2023-04-07T18:20:25.291Z,11.23
2023-04-07T18:22:55.214Z,11.50
2023-04-07T18:25:25.525Z,11.30
2023-04-07T18:27:55.252Z,11.70
2023-04-07T18:30:23.825Z,12.13
2023-04-07T18:32:54.101Z,11.70
2023-04-07T18:35:26.005Z,12.03
2023-04-07T18:37:56.229Z,12.93
2023-04-07T18:40:30.183Z,14.10
2023-04-07T18:42:58.671Z,12.57
2023-04-07T18:45:26.817Z,11.83
2023-04-07T18:47:55.241Z,12.57
2023-04-07T18:50:24.376Z,10.87
2023-04-07T18:52:52.589Z,11.23
2023-04-07T18:55:23.595Z,10.77
2023-04-07T18:57:52.248Z,13.23
2023-04-07T19:00:27.545Z,11.40
2023-04-07T19:02:57.822Z,20.07
2023-04-07T19:05:26.625Z,10.93
2023-04-07T19:07:55.108Z,11.30
2023-04-07T19:10:23.309Z,10.63
2023-04-07T19:12:51.717Z,10.40
2023-04-07T19:15:21.210Z,10.27
2023-04-07T19:17:50.098Z,11.87
2023-04-07T19:20:20.206Z,10.20
2023-04-07T19:22:51.585Z,10.67
2023-04-07T19:25:20.311Z,11.70
2023-04-07T19:27:48.311Z,9.87
2023-04-07T19:30:16.544Z,8.30
2023-04-07T19:32:46.239Z,9.10
2023-04-07T19:35:17.755Z,8.67
2023-04-07T19:37:48.187Z,8.63
2023-04-07T19:40:17.406Z,8.30
2023-04-07T19:42:47.463Z,8.43
2023-04-07T19:45:15.596Z,8.60
2023-04-07T19:47:47.468Z,8.67
2023-04-07T19:50:19.746Z,8.50
2023-04-07T19:52:50.660Z,8.80
2023-04-07T19:55:18.872Z,8.37
2023-04-07T19:57:47.653Z,8.47
2023-04-07T20:00:16.541Z,8.07
2023-04-07T20:03:06.194Z,8.27
2023-04-07T20:05:35.271Z,8.50
2023-04-07T20:08:03.922Z,8.53
2023-04-07T20:10:32.667Z,8.27
2023-04-07T20:13:15.778Z,8.60
2023-04-07T20:15:44.580Z,8.70
2023-04-07T20:18:12.673Z,9.37
2023-04-07T20:20:42.391Z,8.43
2023-04-07T20:23:11.048Z,9.47
2023-04-07T20:25:39.416Z,9.70
2023-04-07T20:28:11.466Z,8.63
2023-04-07T20:30:39.790Z,10.03
2023-04-07T20:33:17.197Z,10.10
2023-04-07T20:35:48.537Z,11.07
2023-04-07T20:38:16.855Z,10.53
2023-04-07T20:40:45.953Z,12.40
2023-04-07T20:43:16.072Z,10.70
2023-04-07T20:45:47.341Z,10.50
2023-04-07T20:48:18.712Z,10.43
2023-04-07T20:50:47.218Z,11.40
2023-04-07T20:53:18.784Z,11.43
2023-04-07T20:55:58.585Z,12.60
2023-04-07T20:58:27.539Z,12.77
2023-04-07T21:00:57.624Z,13.13
2023-04-07T21:03:27.277Z,12.40
2023-04-07T21:05:57.041Z,12.87
2023-04-07T21:08:29.384Z,12.50
2023-04-07T21:10:57.553Z,13.13
2023-04-07T21:13:27.533Z,13.67
2023-04-07T21:15:57.607Z,12.63
2023-04-07T21:18:27.686Z,12.77
2023-04-07T21:21:03.502Z,13.90
2023-04-07T21:23:33.561Z,11.87
2023-04-07T21:26:03.170Z,12.73
2023-04-07T21:28:37.709Z,11.50
2023-04-07T21:31:06.707Z,11.83
2023-04-07T21:33:35.234Z,11.27
2023-04-07T21:36:07.300Z,11.17
2023-04-07T21:38:38.987Z,11.00
2023-04-07T21:41:07.451Z,11.20
2023-04-07T21:43:37.307Z,11.10
2023-04-07T21:46:07.616Z,10.17
2023-04-07T21:48:36.619Z,11.30
2023-04-07T21:51:08.693Z,11.53
2023-04-07T21:53:41.103Z,10.57
2023-04-07T21:56:09.674Z,10.53
2023-04-07T21:58:44.407Z,10.67
2023-04-07T22:01:14.979Z,12.23
2023-04-07T22:03:46.293Z,11.67
2023-04-07T22:06:15.844Z,13.67
2023-04-07T22:08:51.577Z,11.20
2023-04-07T22:11:28.916Z,11.53
2023-04-07T22:13:57.740Z,10.73
2023-04-07T22:16:29.398Z,11.67
2023-04-07T22:19:02.073Z,11.43
2023-04-07T22:21:33.010Z,10.23
2023-04-07T22:24:01.652Z,11.50
2023-04-07T22:26:32.035Z,10.40
2023-04-07T22:29:01.151Z,11.33
2023-04-07T22:31:30.261Z,11.23
2023-04-07T22:34:01.715Z,12.20
2023-04-07T22:36:55.623Z,12.17
2023-04-07T22:39:24.145Z,11.73
2023-04-07T22:41:52.359Z,13.23
2023-04-07T22:44:22.622Z,11.77
2023-04-07T22:46:51.231Z,11.87
2023-04-07T22:49:20.056Z,12.80
2023-04-07T22:51:50.779Z,12.80
2023-04-07T22:54:21.826Z,12.20
2023-04-07T22:56:56.221Z,12.10
2023-04-07T22:59:24.477Z,12.67
2023-04-07T23:01:52.634Z,13.03
2023-04-07T23:04:21.885Z,11.73
2023-04-07T23:06:50.325Z,12.63
2023-04-07T23:09:21.302Z,11.97
2023-04-07T23:11:49.757Z,11.17
2023-04-07T23:14:19.024Z,11.60
2023-04-07T23:16:51.855Z,11.23
2023-04-07T23:19:20.112Z,10.63
2023-04-07T23:21:49.125Z,11.13
2023-04-07T23:24:21.032Z,10.23
2023-04-07T23:26:49.796Z,11.47
2023-04-07T23:29:19.548Z,10.00
2023-04-07T23:31:49.030Z,9.90
2023-04-07T23:34:17.500Z,10.33
2023-04-07T23:36:46.172Z,10.53
2023-04-07T23:39:15.196Z,12.87
2023-04-07T23:41:43.674Z,10.73
2023-04-07T23:44:12.123Z,11.07
2023-04-07T23:46:40.310Z,12.67
2023-04-07T23:49:08.494Z,12.37
2023-04-07T23:51:37.075Z,13.17
2023-04-07T23:54:24.661Z,13.00
2023-04-07T23:56:53.069Z,42.90
2023-04-07T23:59:23.908Z,17.40
